Aviation Digital Data Service (ADDS)

Output produced by METARs form (1506 UTC 20 March 2019)
found at http://www.aviationweather.gov/metar/data/
 
Forecast for: EDLW (DORTMUND/WICKEDE, DE)
Text: TAF EDLW 201100Z 2012/2112 23010KT 9999 FEW045
Forecast period: 1200 to 1500 UTC 20 March 2019
Forecast type: FROM: standard forecast or significant change
Winds: from the SW (230 degrees) at 12 MPH (10 knots; 5.1 m/s)
Visibility: 6 or more miles 10+ km)
Ceiling: at least 12,000 feet AGL
Clouds: few clouds at 4500 feet AGL
Weather: no significant weather forecast for this period
Text: BECMG 2015/2017 19005KT
Forecast period: 1500 UTC 20 March 2019 to 1200 UTC 21 March 2019
Forecast type: BECOMING: Conditions expected to become as follows by 1700 UTC 20 March 2019
Winds: from the S (190 degrees) at 6 MPH (5 knots; 2.6 m/s)
Visibility: 6 or more miles 10+ km)
Ceiling: at least 12,000 feet AGL
Clouds: few clouds at 4500 feet AGL
Weather: no significant weather forecast for this period